Granger, TX (76530)

5:17 AM CDT on August 29, 2015 (GMT -0500)
APRSWXNET | | Change Station
CLOSE
Current Station
Personal Weather Station
Location: Granger, TX
Elevation: 626 ft
Nearby Weather Stations

Elev 626 ft 30.76 °N, 97.50 °W | Updated 40 minutes ago

Partly Cloudy
Partly Cloudy
73 °F
Feels Like 74 °F
N
4
Wind Variable Wind from SW
Gusts 6.0 mph

Today
High -- | Low -- °F
--% Chance of Precip.
Yesterday
High -- | Low -- °F
Precip. -- in
7:04 AM 7:56 PM
Full, 100% visible
Pressure 30.02 in
Visibility 10.0 miles
Clouds Clear
Heat Index 74 °F
Dew Point 64 °F
Humidity 74%
Rainfall in
Snow Depth Not available.
UV 0 out of 12
Pollen 6.20 out of 12
Air Quality Not available.
Flu Activity Not available.
METAR KGTU 291015Z 21005KT 10SM CLR 23/17 A3002 RMK AO1
Pressure 30.02 in
Visibility 10.0 miles
Clouds Clear
Heat Index 74 °F
Dew Point 64 °F
Humidity 74%
Rainfall in
Snow Depth Not available.
UV 0 out of 12
Pollen 6.20 out of 12
Air Quality Not available.
Flu Activity Not available.
METAR KGTU 291015Z 21005KT 10SM CLR 23/17 A3002 RMK AO1

10-Day Weather Forecast

×

Almanac

Astronomy

Aug. 29, 2015 Rise Set
Actual Time
Civil Twilight
Nautical Twilight
Astronomical Twilight
Moon
Length of Visible Light
Length of Day
Tomorrow will be .
, % of the Moon is Illuminated

Today's Extremes

State Highs State Lows

Community

WunderPhotos

Upload Photos

1,850,633 photos uploaded!

WunderBlogs® & News

Nearby

Air Quality

  Air Quality AQ Index Pollutant
Not available.

Snow Depth

Station Depth Elevation

Earthquake Activity

City Distance Mag. Time & Date
Minimum magnitude displayed is 2.5.

Coastal Water Temperatures

Place Temperature

Stations

Nearby Weather Stations

Station Location Temp. Windchill Dew Point Humidity Wind Precip. Elev Updated Type